sensor_id;sensor_type;location;lat;lon;timestamp;pressure;altitude;pressure_sealevel;temperature
54746;BMP180;40640;48.130;11.356;2023-05-19T00:02:30;96015.00;;;10.00
54746;BMP180;40640;48.130;11.356;2023-05-19T00:06:35;96015.00;;;9.90
54746;BMP180;40640;48.130;11.356;2023-05-19T00:10:39;96012.00;;;9.90
54746;BMP180;40640;48.130;11.356;2023-05-19T00:14:42;96021.00;;;9.90
54746;BMP180;40640;48.130;11.356;2023-05-19T00:18:47;96013.00;;;9.90
54746;BMP180;40640;48.130;11.356;2023-05-19T00:22:50;96010.00;;;9.90
54746;BMP180;40640;48.130;11.356;2023-05-19T00:26:52;96015.00;;;10.00
54746;BMP180;40640;48.130;11.356;2023-05-19T00:30:55;96015.00;;;10.00
54746;BMP180;40640;48.130;11.356;2023-05-19T00:35:00;96000.00;;;10.00
54746;BMP180;40640;48.130;11.356;2023-05-19T00:39:03;96009.00;;;10.00
54746;BMP180;40640;48.130;11.356;2023-05-19T00:43:05;96003.00;;;10.00
54746;BMP180;40640;48.130;11.356;2023-05-19T00:47:09;95997.00;;;9.90
54746;BMP180;40640;48.130;11.356;2023-05-19T00:51:13;95987.00;;;10.00
54746;BMP180;40640;48.130;11.356;2023-05-19T00:55:19;95988.00;;;10.00
54746;BMP180;40640;48.130;11.356;2023-05-19T00:59:22;95980.00;;;10.00
54746;BMP180;40640;48.130;11.356;2023-05-19T01:03:25;95979.00;;;10.10
54746;BMP180;40640;48.130;11.356;2023-05-19T01:07:33;95980.00;;;10.10
54746;BMP180;40640;48.130;11.356;2023-05-19T01:11:37;95983.00;;;10.10
54746;BMP180;40640;48.130;11.356;2023-05-19T01:15:56;95977.00;;;10.00
54746;BMP180;40640;48.130;11.356;2023-05-19T01:20:03;95990.00;;;10.00
54746;BMP180;40640;48.130;11.356;2023-05-19T01:24:33;95990.00;;;10.10
54746;BMP180;40640;48.130;11.356;2023-05-19T01:29:12;95987.00;;;10.10
54746;BMP180;40640;48.130;11.356;2023-05-19T01:33:20;95984.00;;;10.10
54746;BMP180;40640;48.130;11.356;2023-05-19T01:37:24;95983.00;;;10.00
54746;BMP180;40640;48.130;11.356;2023-05-19T01:41:29;95986.00;;;10.00
54746;BMP180;40640;48.130;11.356;2023-05-19T01:45:33;95988.00;;;9.90
54746;BMP180;40640;48.130;11.356;2023-05-19T01:49:38;95989.00;;;10.10
54746;BMP180;40640;48.130;11.356;2023-05-19T01:53:41;95989.00;;;10.20
54746;BMP180;40640;48.130;11.356;2023-05-19T01:57:50;95981.00;;;10.30
54746;BMP180;40640;48.130;11.356;2023-05-19T02:01:59;95989.00;;;10.40
54746;BMP180;40640;48.130;11.356;2023-05-19T02:06:19;95979.00;;;10.40
54746;BMP180;40640;48.130;11.356;2023-05-19T02:10:26;95977.00;;;10.40
54746;BMP180;40640;48.130;11.356;2023-05-19T02:14:34;95979.00;;;10.40
54746;BMP180;40640;48.130;11.356;2023-05-19T02:18:40;95985.00;;;10.40
54746;BMP180;40640;48.130;11.356;2023-05-19T02:22:47;95979.00;;;10.40
54746;BMP180;40640;48.130;11.356;2023-05-19T02:26:51;95972.00;;;10.40
54746;BMP180;40640;48.130;11.356;2023-05-19T02:30:54;95979.00;;;10.40
54746;BMP180;40640;48.130;11.356;2023-05-19T02:34:57;95977.00;;;10.40
54746;BMP180;40640;48.130;11.356;2023-05-19T02:39:02;95984.00;;;10.40
54746;BMP180;40640;48.130;11.356;2023-05-19T02:43:05;95975.00;;;10.40
54746;BMP180;40640;48.130;11.356;2023-05-19T02:47:08;95972.00;;;10.40
54746;BMP180;40640;48.130;11.356;2023-05-19T02:51:12;95971.00;;;10.40
54746;BMP180;40640;48.130;11.356;2023-05-19T02:55:16;95957.00;;;10.40
54746;BMP180;40640;48.130;11.356;2023-05-19T02:59:19;95961.00;;;10.30
54746;BMP180;40640;48.130;11.356;2023-05-19T03:03:22;95964.00;;;10.30
54746;BMP180;40640;48.130;11.356;2023-05-19T03:07:26;95955.00;;;10.30
54746;BMP180;40640;48.130;11.356;2023-05-19T03:11:30;95953.00;;;10.30
54746;BMP180;40640;48.130;11.356;2023-05-19T03:15:33;95949.00;;;10.30
54746;BMP180;40640;48.130;11.356;2023-05-19T03:19:37;95958.00;;;10.30
54746;BMP180;40640;48.130;11.356;2023-05-19T03:23:40;95951.00;;;10.10
54746;BMP180;40640;48.130;11.356;2023-05-19T03:27:44;95951.00;;;10.10
54746;BMP180;40640;48.130;11.356;2023-05-19T03:31:47;95940.00;;;10.00
54746;BMP180;40640;48.130;11.356;2023-05-19T03:35:52;95940.00;;;10.00
54746;BMP180;40640;48.130;11.356;2023-05-19T03:39:55;95937.00;;;10.00
54746;BMP180;40640;48.130;11.356;2023-05-19T03:44:00;95936.00;;;10.00
54746;BMP180;40640;48.130;11.356;2023-05-19T03:48:04;95933.00;;;10.00
54746;BMP180;40640;48.130;11.356;2023-05-19T03:52:27;95938.00;;;10.10
54746;BMP180;40640;48.130;11.356;2023-05-19T03:56:38;95939.00;;;9.90
54746;BMP180;40640;48.130;11.356;2023-05-19T04:00:43;95946.00;;;9.90
54746;BMP180;40640;48.130;11.356;2023-05-19T04:04:45;95939.00;;;9.90
54746;BMP180;40640;48.130;11.356;2023-05-19T04:08:48;95930.00;;;9.80
54746;BMP180;40640;48.130;11.356;2023-05-19T04:12:51;95935.00;;;9.70
54746;BMP180;40640;48.130;11.356;2023-05-19T04:16:56;95934.00;;;9.80
54746;BMP180;40640;48.130;11.356;2023-05-19T04:21:00;95935.00;;;9.90
54746;BMP180;40640;48.130;11.356;2023-05-19T04:25:04;95938.00;;;9.90
54746;BMP180;40640;48.130;11.356;2023-05-19T04:29:08;95938.00;;;10.10
54746;BMP180;40640;48.130;11.356;2023-05-19T04:33:13;95932.00;;;9.90
54746;BMP180;40640;48.130;11.356;2023-05-19T04:37:17;95932.00;;;10.10
54746;BMP180;40640;48.130;11.356;2023-05-19T04:41:20;95943.00;;;10.20
54746;BMP180;40640;48.130;11.356;2023-05-19T04:45:24;95930.00;;;10.10
54746;BMP180;40640;48.130;11.356;2023-05-19T04:49:31;95940.00;;;10.10
54746;BMP180;40640;48.130;11.356;2023-05-19T04:53:35;95934.00;;;10.10
54746;BMP180;40640;48.130;11.356;2023-05-19T04:57:41;95933.00;;;10.30
54746;BMP180;40640;48.130;11.356;2023-05-19T05:01:44;95934.00;;;10.30
54746;BMP180;40640;48.130;11.356;2023-05-19T05:05:51;95932.00;;;10.60
54746;BMP180;40640;48.130;11.356;2023-05-19T05:09:55;95928.00;;;10.70
54746;BMP180;40640;48.130;11.356;2023-05-19T05:13:58;95918.00;;;10.70
54746;BMP180;40640;48.130;11.356;2023-05-19T05:18:03;95923.00;;;10.70
54746;BMP180;40640;48.130;11.356;2023-05-19T05:22:08;95929.00;;;11.00
54746;BMP180;40640;48.130;11.356;2023-05-19T05:26:17;95916.00;;;10.70
54746;BMP180;40640;48.130;11.356;2023-05-19T05:30:22;95920.00;;;10.80
54746;BMP180;40640;48.130;11.356;2023-05-19T05:34:26;95926.00;;;10.90
54746;BMP180;40640;48.130;11.356;2023-05-19T05:38:31;95928.00;;;10.80
54746;BMP180;40640;48.130;11.356;2023-05-19T05:42:34;95931.00;;;10.70
54746;BMP180;40640;48.130;11.356;2023-05-19T05:46:37;95939.00;;;10.90
54746;BMP180;40640;48.130;11.356;2023-05-19T05:50:42;95934.00;;;10.80
54746;BMP180;40640;48.130;11.356;2023-05-19T05:54:47;95933.00;;;10.90
54746;BMP180;40640;48.130;11.356;2023-05-19T05:58:52;95921.00;;;11.20
54746;BMP180;40640;48.130;11.356;2023-05-19T06:02:55;95926.00;;;11.80
54746;BMP180;40640;48.130;11.356;2023-05-19T06:07:00;95933.00;;;12.00
54746;BMP180;40640;48.130;11.356;2023-05-19T06:11:08;95936.00;;;12.20
54746;BMP180;40640;48.130;11.356;2023-05-19T06:15:13;95929.00;;;12.50
54746;BMP180;40640;48.130;11.356;2023-05-19T06:19:39;95924.00;;;12.80
54746;BMP180;40640;48.130;11.356;2023-05-19T06:23:42;95938.00;;;12.70
54746;BMP180;40640;48.130;11.356;2023-05-19T06:27:47;95935.00;;;14.00
54746;BMP180;40640;48.130;11.356;2023-05-19T06:31:50;95925.00;;;13.90
54746;BMP180;40640;48.130;11.356;2023-05-19T06:35:53;95913.00;;;13.30
54746;BMP180;40640;48.130;11.356;2023-05-19T06:39:56;95933.00;;;13.70
54746;BMP180;40640;48.130;11.356;2023-05-19T06:44:02;95937.00;;;13.80
54746;BMP180;40640;48.130;11.356;2023-05-19T06:48:07;95932.00;;;14.10
54746;BMP180;40640;48.130;11.356;2023-05-19T06:52:11;95943.00;;;14.30
54746;BMP180;40640;48.130;11.356;2023-05-19T06:56:14;95938.00;;;14.20
54746;BMP180;40640;48.130;11.356;2023-05-19T07:00:20;95949.00;;;14.30
54746;BMP180;40640;48.130;11.356;2023-05-19T07:04:26;95947.00;;;14.40
54746;BMP180;40640;48.130;11.356;2023-05-19T07:08:30;95945.00;;;15.40
54746;BMP180;40640;48.130;11.356;2023-05-19T07:12:36;95943.00;;;15.50
54746;BMP180;40640;48.130;11.356;2023-05-19T07:16:41;95934.00;;;15.80
54746;BMP180;40640;48.130;11.356;2023-05-19T07:20:44;95938.00;;;15.90
54746;BMP180;40640;48.130;11.356;2023-05-19T07:24:48;95948.00;;;16.00
54746;BMP180;40640;48.130;11.356;2023-05-19T07:28:51;95948.00;;;16.10
54746;BMP180;40640;48.130;11.356;2023-05-19T07:32:56;95949.00;;;16.20
54746;BMP180;40640;48.130;11.356;2023-05-19T07:36:59;95942.00;;;16.30
54746;BMP180;40640;48.130;11.356;2023-05-19T07:41:02;95932.00;;;16.00
54746;BMP180;40640;48.130;11.356;2023-05-19T07:45:06;95942.00;;;16.20
54746;BMP180;40640;48.130;11.356;2023-05-19T07:49:11;95937.00;;;16.00
54746;BMP180;40640;48.130;11.356;2023-05-19T07:53:14;95943.00;;;15.80
54746;BMP180;40640;48.130;11.356;2023-05-19T07:57:17;95949.00;;;16.30
54746;BMP180;40640;48.130;11.356;2023-05-19T08:01:20;95943.00;;;16.60
54746;BMP180;40640;48.130;11.356;2023-05-19T08:05:24;95947.00;;;16.90
54746;BMP180;40640;48.130;11.356;2023-05-19T08:09:27;95944.00;;;16.60
54746;BMP180;40640;48.130;11.356;2023-05-19T08:13:30;95938.00;;;16.80
54746;BMP180;40640;48.130;11.356;2023-05-19T08:17:33;95940.00;;;16.70
54746;BMP180;40640;48.130;11.356;2023-05-19T08:21:37;95935.00;;;16.30
54746;BMP180;40640;48.130;11.356;2023-05-19T08:25:40;95935.00;;;16.30
54746;BMP180;40640;48.130;11.356;2023-05-19T08:29:43;95933.00;;;16.00
54746;BMP180;40640;48.130;11.356;2023-05-19T08:33:46;95938.00;;;16.10
54746;BMP180;40640;48.130;11.356;2023-05-19T08:37:50;95932.00;;;16.30
54746;BMP180;40640;48.130;11.356;2023-05-19T08:41:53;95935.00;;;16.20
54746;BMP180;40640;48.130;11.356;2023-05-19T08:45:58;95932.00;;;16.20
54746;BMP180;40640;48.130;11.356;2023-05-19T08:50:03;95940.00;;;16.20
54746;BMP180;40640;48.130;11.356;2023-05-19T08:54:13;95939.00;;;16.60
54746;BMP180;40640;48.130;11.356;2023-05-19T08:58:17;95930.00;;;17.10
54746;BMP180;40640;48.130;11.356;2023-05-19T09:02:22;95932.00;;;17.00
54746;BMP180;40640;48.130;11.356;2023-05-19T09:06:26;95935.00;;;17.00
54746;BMP180;40640;48.130;11.356;2023-05-19T09:10:30;95924.00;;;16.60
54746;BMP180;40640;48.130;11.356;2023-05-19T09:14:33;95931.00;;;16.30
54746;BMP180;40640;48.130;11.356;2023-05-19T09:18:38;95939.00;;;15.80
54746;BMP180;40640;48.130;11.356;2023-05-19T09:22:42;95928.00;;;15.90
54746;BMP180;40640;48.130;11.356;2023-05-19T09:26:47;95932.00;;;16.10
54746;BMP180;40640;48.130;11.356;2023-05-19T09:30:57;95924.00;;;15.30
54746;BMP180;40640;48.130;11.356;2023-05-19T09:35:01;95924.00;;;15.30
54746;BMP180;40640;48.130;11.356;2023-05-19T09:39:11;95928.00;;;15.70
54746;BMP180;40640;48.130;11.356;2023-05-19T09:43:16;95938.00;;;15.80
54746;BMP180;40640;48.130;11.356;2023-05-19T09:47:19;95928.00;;;15.80
54746;BMP180;40640;48.130;11.356;2023-05-19T09:51:22;95933.00;;;15.80
54746;BMP180;40640;48.130;11.356;2023-05-19T09:55:27;95924.00;;;15.80
54746;BMP180;40640;48.130;11.356;2023-05-19T09:59:32;95926.00;;;15.50
54746;BMP180;40640;48.130;11.356;2023-05-19T10:03:35;95918.00;;;15.20
54746;BMP180;40640;48.130;11.356;2023-05-19T10:07:39;95923.00;;;15.10
54746;BMP180;40640;48.130;11.356;2023-05-19T10:11:42;95917.00;;;15.00
54746;BMP180;40640;48.130;11.356;2023-05-19T10:15:48;95924.00;;;15.40
54746;BMP180;40640;48.130;11.356;2023-05-19T10:19:56;95921.00;;;15.40
54746;BMP180;40640;48.130;11.356;2023-05-19T10:23:59;95923.00;;;15.50
54746;BMP180;40640;48.130;11.356;2023-05-19T10:28:05;95921.00;;;15.60
54746;BMP180;40640;48.130;11.356;2023-05-19T10:32:14;95920.00;;;15.30
54746;BMP180;40640;48.130;11.356;2023-05-19T10:40:54;95923.00;;;14.90
54746;BMP180;40640;48.130;11.356;2023-05-19T10:45:04;95921.00;;;15.10
54746;BMP180;40640;48.130;11.356;2023-05-19T10:49:18;95920.00;;;15.10
54746;BMP180;40640;48.130;11.356;2023-05-19T10:53:29;95924.00;;;15.10
54746;BMP180;40640;48.130;11.356;2023-05-19T10:57:32;95919.00;;;15.10
54746;BMP180;40640;48.130;11.356;2023-05-19T11:01:36;95911.00;;;15.60
54746;BMP180;40640;48.130;11.356;2023-05-19T11:05:43;95912.00;;;15.90
54746;BMP180;40640;48.130;11.356;2023-05-19T11:09:48;95920.00;;;16.10
54746;BMP180;40640;48.130;11.356;2023-05-19T11:13:53;95918.00;;;16.10
54746;BMP180;40640;48.130;11.356;2023-05-19T11:17:56;95909.00;;;16.30
54746;BMP180;40640;48.130;11.356;2023-05-19T11:22:10;95919.00;;;16.30
54746;BMP180;40640;48.130;11.356;2023-05-19T11:26:13;95914.00;;;16.30
54746;BMP180;40640;48.130;11.356;2023-05-19T11:30:16;95919.00;;;16.20
54746;BMP180;40640;48.130;11.356;2023-05-19T11:34:21;95916.00;;;15.90
54746;BMP180;40640;48.130;11.356;2023-05-19T11:38:27;95904.00;;;15.70
54746;BMP180;40640;48.130;11.356;2023-05-19T11:42:31;95916.00;;;15.80
54746;BMP180;40640;48.130;11.356;2023-05-19T11:46:35;95918.00;;;15.50
54746;BMP180;40640;48.130;11.356;2023-05-19T11:50:39;95923.00;;;15.60
54746;BMP180;40640;48.130;11.356;2023-05-19T11:54:47;95915.00;;;15.70
54746;BMP180;40640;48.130;11.356;2023-05-19T11:58:52;95915.00;;;15.90
54746;BMP180;40640;48.130;11.356;2023-05-19T12:02:55;95913.00;;;16.00
54746;BMP180;40640;48.130;11.356;2023-05-19T12:06:58;95923.00;;;16.30
54746;BMP180;40640;48.130;11.356;2023-05-19T12:11:03;95923.00;;;16.30
54746;BMP180;40640;48.130;11.356;2023-05-19T12:15:07;95921.00;;;16.10
54746;BMP180;40640;48.130;11.356;2023-05-19T12:19:11;95921.00;;;16.20
54746;BMP180;40640;48.130;11.356;2023-05-19T12:23:14;95922.00;;;16.20
54746;BMP180;40640;48.130;11.356;2023-05-19T12:27:19;95925.00;;;16.30
54746;BMP180;40640;48.130;11.356;2023-05-19T12:31:22;95920.00;;;16.40
54746;BMP180;40640;48.130;11.356;2023-05-19T12:35:26;95916.00;;;16.60
54746;BMP180;40640;48.130;11.356;2023-05-19T12:39:29;95922.00;;;16.80
54746;BMP180;40640;48.130;11.356;2023-05-19T12:43:34;95909.00;;;16.60
54746;BMP180;40640;48.130;11.356;2023-05-19T12:47:38;95913.00;;;16.70
54746;BMP180;40640;48.130;11.356;2023-05-19T12:51:41;95914.00;;;16.60
54746;BMP180;40640;48.130;11.356;2023-05-19T12:55:44;95899.00;;;16.50
54746;BMP180;40640;48.130;11.356;2023-05-19T12:59:48;95910.00;;;16.40
54746;BMP180;40640;48.130;11.356;2023-05-19T13:03:51;95913.00;;;16.40
54746;BMP180;40640;48.130;11.356;2023-05-19T13:07:56;95912.00;;;16.50
54746;BMP180;40640;48.130;11.356;2023-05-19T13:11:59;95920.00;;;16.80
54746;BMP180;40640;48.130;11.356;2023-05-19T13:16:04;95918.00;;;16.70
54746;BMP180;40640;48.130;11.356;2023-05-19T13:20:08;95914.00;;;16.80
54746;BMP180;40640;48.130;11.356;2023-05-19T13:24:11;95907.00;;;16.30
54746;BMP180;40640;48.130;11.356;2023-05-19T13:28:14;95895.00;;;16.70
54746;BMP180;40640;48.130;11.356;2023-05-19T13:32:18;95897.00;;;17.20
54746;BMP180;40640;48.130;11.356;2023-05-19T13:36:21;95888.00;;;18.20
54746;BMP180;40640;48.130;11.356;2023-05-19T13:40:24;95885.00;;;18.00
54746;BMP180;40640;48.130;11.356;2023-05-19T13:44:28;95890.00;;;18.20
54746;BMP180;40640;48.130;11.356;2023-05-19T13:48:32;95882.00;;;17.90
54746;BMP180;40640;48.130;11.356;2023-05-19T13:52:35;95882.00;;;18.10
54746;BMP180;40640;48.130;11.356;2023-05-19T13:56:38;95883.00;;;18.20
54746;BMP180;40640;48.130;11.356;2023-05-19T14:00:41;95875.00;;;18.50
54746;BMP180;40640;48.130;11.356;2023-05-19T14:04:45;95868.00;;;18.60
54746;BMP180;40640;48.130;11.356;2023-05-19T14:08:48;95857.00;;;18.50
54746;BMP180;40640;48.130;11.356;2023-05-19T14:12:51;95860.00;;;18.60
54746;BMP180;40640;48.130;11.356;2023-05-19T14:17:14;95855.00;;;18.70
54746;BMP180;40640;48.130;11.356;2023-05-19T14:21:19;95850.00;;;18.00
54746;BMP180;40640;48.130;11.356;2023-05-19T14:25:21;95856.00;;;18.10
54746;BMP180;40640;48.130;11.356;2023-05-19T14:29:24;95851.00;;;18.10
54746;BMP180;40640;48.130;11.356;2023-05-19T14:33:28;95849.00;;;17.60
54746;BMP180;40640;48.130;11.356;2023-05-19T14:37:37;95859.00;;;17.10
54746;BMP180;40640;48.130;11.356;2023-05-19T14:41:40;95855.00;;;17.20
54746;BMP180;40640;48.130;11.356;2023-05-19T14:45:43;95859.00;;;17.40
54746;BMP180;40640;48.130;11.356;2023-05-19T14:49:46;95859.00;;;17.20
54746;BMP180;40640;48.130;11.356;2023-05-19T14:53:50;95853.00;;;17.10
54746;BMP180;40640;48.130;11.356;2023-05-19T14:57:53;95867.00;;;16.80
54746;BMP180;40640;48.130;11.356;2023-05-19T15:01:56;95850.00;;;16.30
54746;BMP180;40640;48.130;11.356;2023-05-19T15:05:59;95854.00;;;16.10
54746;BMP180;40640;48.130;11.356;2023-05-19T15:10:04;95855.00;;;16.00
54746;BMP180;40640;48.130;11.356;2023-05-19T15:14:07;95850.00;;;16.00
54746;BMP180;40640;48.130;11.356;2023-05-19T15:18:09;95850.00;;;16.00
54746;BMP180;40640;48.130;11.356;2023-05-19T15:22:13;95841.00;;;16.10
54746;BMP180;40640;48.130;11.356;2023-05-19T15:26:17;95846.00;;;15.70
54746;BMP180;40640;48.130;11.356;2023-05-19T15:30:20;95839.00;;;15.60
54746;BMP180;40640;48.130;11.356;2023-05-19T15:34:23;95832.00;;;15.50
54746;BMP180;40640;48.130;11.356;2023-05-19T15:38:26;95834.00;;;15.40
54746;BMP180;40640;48.130;11.356;2023-05-19T15:42:50;95834.00;;;15.70
54746;BMP180;40640;48.130;11.356;2023-05-19T15:46:53;95834.00;;;15.70
54746;BMP180;40640;48.130;11.356;2023-05-19T15:50:56;95816.00;;;15.80
54746;BMP180;40640;48.130;11.356;2023-05-19T15:54:59;95819.00;;;15.80
54746;BMP180;40640;48.130;11.356;2023-05-19T15:59:03;95816.00;;;15.90
54746;BMP180;40640;48.130;11.356;2023-05-19T16:03:06;95809.00;;;16.20
54746;BMP180;40640;48.130;11.356;2023-05-19T16:07:09;95813.00;;;16.50
54746;BMP180;40640;48.130;11.356;2023-05-19T16:11:12;95809.00;;;16.40
54746;BMP180;40640;48.130;11.356;2023-05-19T16:15:17;95810.00;;;16.50
54746;BMP180;40640;48.130;11.356;2023-05-19T16:19:20;95799.00;;;16.40
54746;BMP180;40640;48.130;11.356;2023-05-19T16:23:24;95797.00;;;16.30
54746;BMP180;40640;48.130;11.356;2023-05-19T16:27:27;95784.00;;;16.60
54746;BMP180;40640;48.130;11.356;2023-05-19T16:31:32;95791.00;;;16.90
54746;BMP180;40640;48.130;11.356;2023-05-19T16:35:35;95795.00;;;17.00
54746;BMP180;40640;48.130;11.356;2023-05-19T16:39:38;95798.00;;;16.90
54746;BMP180;40640;48.130;11.356;2023-05-19T16:43:42;95778.00;;;16.80
54746;BMP180;40640;48.130;11.356;2023-05-19T16:47:46;95778.00;;;16.80
54746;BMP180;40640;48.130;11.356;2023-05-19T16:51:49;95775.00;;;16.90
54746;BMP180;40640;48.130;11.356;2023-05-19T16:55:53;95775.00;;;16.90
54746;BMP180;40640;48.130;11.356;2023-05-19T16:59:56;95764.00;;;16.90
54746;BMP180;40640;48.130;11.356;2023-05-19T17:04:00;95774.00;;;17.00
54746;BMP180;40640;48.130;11.356;2023-05-19T17:08:04;95766.00;;;16.70
54746;BMP180;40640;48.130;11.356;2023-05-19T17:12:07;95763.00;;;16.50
54746;BMP180;40640;48.130;11.356;2023-05-19T17:16:10;95759.00;;;16.40
54746;BMP180;40640;48.130;11.356;2023-05-19T17:20:14;95764.00;;;16.30
54746;BMP180;40640;48.130;11.356;2023-05-19T17:24:17;95758.00;;;16.40
54746;BMP180;40640;48.130;11.356;2023-05-19T17:28:20;95762.00;;;16.40
54746;BMP180;40640;48.130;11.356;2023-05-19T17:32:23;95773.00;;;16.40
54746;BMP180;40640;48.130;11.356;2023-05-19T17:36:30;95769.00;;;16.30
54746;BMP180;40640;48.130;11.356;2023-05-19T17:40:33;95760.00;;;16.30
54746;BMP180;40640;48.130;11.356;2023-05-19T17:44:36;95763.00;;;16.20
54746;BMP180;40640;48.130;11.356;2023-05-19T17:48:39;95760.00;;;16.20
54746;BMP180;40640;48.130;11.356;2023-05-19T17:52:43;95763.00;;;16.10
54746;BMP180;40640;48.130;11.356;2023-05-19T17:56:48;95758.00;;;16.00
54746;BMP180;40640;48.130;11.356;2023-05-19T18:00:53;95753.00;;;16.00
54746;BMP180;40640;48.130;11.356;2023-05-19T18:04:57;95760.00;;;16.00
54746;BMP180;40640;48.130;11.356;2023-05-19T18:09:02;95760.00;;;15.90
54746;BMP180;40640;48.130;11.356;2023-05-19T18:13:09;95760.00;;;15.90
54746;BMP180;40640;48.130;11.356;2023-05-19T18:17:14;95761.00;;;15.90
54746;BMP180;40640;48.130;11.356;2023-05-19T18:21:17;95760.00;;;15.80
54746;BMP180;40640;48.130;11.356;2023-05-19T18:25:21;95765.00;;;15.80
54746;BMP180;40640;48.130;11.356;2023-05-19T18:29:24;95769.00;;;15.80
54746;BMP180;40640;48.130;11.356;2023-05-19T18:33:27;95750.00;;;15.70
54746;BMP180;40640;48.130;11.356;2023-05-19T18:37:31;95744.00;;;15.60
54746;BMP180;40640;48.130;11.356;2023-05-19T18:41:36;95749.00;;;15.60
54746;BMP180;40640;48.130;11.356;2023-05-19T18:45:41;95748.00;;;15.50
54746;BMP180;40640;48.130;11.356;2023-05-19T18:49:44;95749.00;;;15.40
54746;BMP180;40640;48.130;11.356;2023-05-19T18:53:47;95751.00;;;15.40
54746;BMP180;40640;48.130;11.356;2023-05-19T18:57:52;95757.00;;;15.40
54746;BMP180;40640;48.130;11.356;2023-05-19T19:01:55;95755.00;;;15.30
54746;BMP180;40640;48.130;11.356;2023-05-19T19:05:58;95751.00;;;15.40
54746;BMP180;40640;48.130;11.356;2023-05-19T19:10:01;95750.00;;;15.40
54746;BMP180;40640;48.130;11.356;2023-05-19T19:14:05;95756.00;;;15.30
54746;BMP180;40640;48.130;11.356;2023-05-19T19:18:08;95760.00;;;15.30
54746;BMP180;40640;48.130;11.356;2023-05-19T19:22:11;95761.00;;;15.30
54746;BMP180;40640;48.130;11.356;2023-05-19T19:26:14;95771.00;;;15.30
54746;BMP180;40640;48.130;11.356;2023-05-19T19:30:19;95764.00;;;15.20
54746;BMP180;40640;48.130;11.356;2023-05-19T19:34:22;95769.00;;;15.10
54746;BMP180;40640;48.130;11.356;2023-05-19T19:38:25;95768.00;;;15.10
54746;BMP180;40640;48.130;11.356;2023-05-19T19:42:28;95769.00;;;15.00
54746;BMP180;40640;48.130;11.356;2023-05-19T19:46:33;95768.00;;;15.00
54746;BMP180;40640;48.130;11.356;2023-05-19T19:50:36;95769.00;;;15.00
54746;BMP180;40640;48.130;11.356;2023-05-19T19:54:39;95772.00;;;15.00
54746;BMP180;40640;48.130;11.356;2023-05-19T19:58:42;95759.00;;;15.00
54746;BMP180;40640;48.130;11.356;2023-05-19T20:02:46;95764.00;;;15.00
54746;BMP180;40640;48.130;11.356;2023-05-19T20:07:05;95761.00;;;15.00
54746;BMP180;40640;48.130;11.356;2023-05-19T20:11:08;95746.00;;;15.00
54746;BMP180;40640;48.130;11.356;2023-05-19T20:15:11;95754.00;;;15.10
54746;BMP180;40640;48.130;11.356;2023-05-19T20:19:15;95734.00;;;15.00
54746;BMP180;40640;48.130;11.356;2023-05-19T20:23:18;95746.00;;;15.00
54746;BMP180;40640;48.130;11.356;2023-05-19T20:27:21;95746.00;;;15.00
54746;BMP180;40640;48.130;11.356;2023-05-19T20:31:24;95750.00;;;14.90
54746;BMP180;40640;48.130;11.356;2023-05-19T20:35:28;95736.00;;;14.90
54746;BMP180;40640;48.130;11.356;2023-05-19T20:39:31;95722.00;;;14.90
54746;BMP180;40640;48.130;11.356;2023-05-19T20:43:35;95726.00;;;14.90
54746;BMP180;40640;48.130;11.356;2023-05-19T20:47:37;95734.00;;;15.00
54746;BMP180;40640;48.130;11.356;2023-05-19T20:51:42;95730.00;;;15.00
54746;BMP180;40640;48.130;11.356;2023-05-19T20:55:45;95736.00;;;14.90
54746;BMP180;40640;48.130;11.356;2023-05-19T20:59:47;95723.00;;;14.90
54746;BMP180;40640;48.130;11.356;2023-05-19T21:03:50;95728.00;;;14.90
54746;BMP180;40640;48.130;11.356;2023-05-19T21:07:54;95728.00;;;15.00
54746;BMP180;40640;48.130;11.356;2023-05-19T21:11:57;95729.00;;;15.00
54746;BMP180;40640;48.130;11.356;2023-05-19T21:16:00;95721.00;;;14.90
54746;BMP180;40640;48.130;11.356;2023-05-19T21:20:04;95724.00;;;14.90
54746;BMP180;40640;48.130;11.356;2023-05-19T21:24:08;95724.00;;;14.90
54746;BMP180;40640;48.130;11.356;2023-05-19T21:28:13;95737.00;;;14.90
54746;BMP180;40640;48.130;11.356;2023-05-19T21:32:16;95722.00;;;15.00
54746;BMP180;40640;48.130;11.356;2023-05-19T21:36:19;95724.00;;;15.00
54746;BMP180;40640;48.130;11.356;2023-05-19T21:40:23;95718.00;;;15.00
54746;BMP180;40640;48.130;11.356;2023-05-19T21:44:26;95716.00;;;15.00
54746;BMP180;40640;48.130;11.356;2023-05-19T21:48:29;95724.00;;;15.00
54746;BMP180;40640;48.130;11.356;2023-05-19T21:52:32;95714.00;;;15.00
54746;BMP180;40640;48.130;11.356;2023-05-19T21:56:38;95720.00;;;15.00
54746;BMP180;40640;48.130;11.356;2023-05-19T22:00:41;95719.00;;;15.00
54746;BMP180;40640;48.130;11.356;2023-05-19T22:04:43;95703.00;;;15.10
54746;BMP180;40640;48.130;11.356;2023-05-19T22:08:46;95697.00;;;15.10
54746;BMP180;40640;48.130;11.356;2023-05-19T22:12:51;95701.00;;;15.00
54746;BMP180;40640;48.130;11.356;2023-05-19T22:16:54;95707.00;;;15.00
54746;BMP180;40640;48.130;11.356;2023-05-19T22:20:56;95692.00;;;15.00
54746;BMP180;40640;48.130;11.356;2023-05-19T22:25:00;95694.00;;;15.00
54746;BMP180;40640;48.130;11.356;2023-05-19T22:29:05;95687.00;;;15.00
54746;BMP180;40640;48.130;11.356;2023-05-19T22:33:08;95682.00;;;15.00
54746;BMP180;40640;48.130;11.356;2023-05-19T22:37:11;95681.00;;;15.00
54746;BMP180;40640;48.130;11.356;2023-05-19T22:41:14;95682.00;;;14.90
54746;BMP180;40640;48.130;11.356;2023-05-19T22:45:19;95684.00;;;14.70
54746;BMP180;40640;48.130;11.356;2023-05-19T22:49:22;95688.00;;;14.80
54746;BMP180;40640;48.130;11.356;2023-05-19T22:53:25;95685.00;;;14.70
54746;BMP180;40640;48.130;11.356;2023-05-19T22:57:27;95684.00;;;14.70
54746;BMP180;40640;48.130;11.356;2023-05-19T23:01:32;95679.00;;;14.60
54746;BMP180;40640;48.130;11.356;2023-05-19T23:05:35;95683.00;;;14.60
54746;BMP180;40640;48.130;11.356;2023-05-19T23:09:37;95685.00;;;14.50
54746;BMP180;40640;48.130;11.356;2023-05-19T23:13:40;95675.00;;;14.60